Calvi-Sainte-Catherine Airport

LFKC | CLY

Calvi/Sainte-Catherine , Corsica , France

Thursday, October 24th, 2019 | 06:57

Weather

LFKC 240430Z AUTO 06005KT 7000 RA FEW003/// SCT020/// BKN054/// ///CB 17/16 Q1012 TEMPO 4000 SHRA BR BKN008 SCT020CB

Charts

No Charts Available

Gates

30 Available

Runways

1 Available

Events

No events for this airport


New event